• Join FlightAware (Why Join?)
  • Login
  • US Flag 
01:17AM EDT


 

Airport Tracker/Info


-or-


 

Live Flight TrackerFlight Track Log ✈ ASQ5545 ✈ 10-May-2013 ✈ KATL - KBHM

Flight Track Log - Related Links

Times and Time Zones

All times are in EDT time to prevent confusion due to time zone crossing. See the ASQ5545 flight status page for this flight to view local times or setup timezone preferences in your user account.

Time Position Orientation Groundspeed Altitude Reporting Facility
EDT Latitude Longitude Course Direction KTS MPH feet Rate Location/Type
02:10PM 33.6500 -84.4500 270° West 159 183 1,900  Level Atlanta TRACON
02:11PM 33.6500 -84.5167 270° West 229 264 3,400 2,160 Climbing Atlanta TRACON
02:12PM 33.6667 -84.6000 284° West 264 304 6,300 2,760 Climbing Atlanta TRACON
02:13PM 33.6833 -84.6833 284° West 278 320 8,700 2,160 Climbing Atlanta TRACON
02:15PM 33.6847 -84.9100 270° West 307 353 13,100 1,920 Climbing Atlanta Center
02:16PM 33.6733 -85.0222 263° West 330 380 14,900 1,740 Climbing Atlanta Center
02:17PM 33.6600 -85.1369 262° West 344 396 16,600 1,500 Climbing Atlanta Center
02:18PM 33.6464 -85.2517 262° West 349 402 18,000 660 Climbing Atlanta Center
02:19PM 33.6389 -85.3611 265° West 349 402 18,000  Level Atlanta Center
02:20PM 33.6294 -85.4758 264° West 349 402 18,000  Level Atlanta Center
02:21PM 33.6175 -85.5903 263° West 349 402 18,000 -900 Level Atlanta Center
02:22PM 33.6097 -85.7025 265° West 349 402 16,300 -1,740 Descending Atlanta Center
02:23PM 33.6006 -85.7572 259° West 345 397 15,500 -1,920 Descending Atlanta Center
02:23PM 33.5958 -85.8094 264° West 341 392 14,400 -2,040 Descending Atlanta Center
02:24PM 33.5908 -85.8567 263° West 329 379 13,700 -1,920 Descending Atlanta Center
02:24PM 33.5878 -85.9192 267° West 328 377 12,500 -1,920 Descending Atlanta Center
02:25PM 33.5811 -85.9614 259° West 313 360 11,800 -1,440 Descending Atlanta Center
02:25PM 33.5806 -85.9961 269° West 323 372 11,100 -720 Descending Atlanta Center
02:26PM 33.5711 -86.0633 260° West 309 356 11,100  Level Atlanta Center
02:26PM 33.5742 -86.1231 274° West 318 366 11,100  Level Atlanta Center
02:27PM 33.5714 -86.1706 266° West 328 377 11,100 -120 Level Atlanta Center
02:27PM 33.5722 -86.2303 271° West 318 366 11,000 -420 Descending Atlanta Center
02:28PM 33.5694 -86.2728 266° West 308 354 10,700 -1,200 Descending Atlanta Center
02:28PM 33.5706 -86.3225 272° West 306 352 9,800 -1,800 Descending Atlanta Center
02:29PM 33.5678 -86.3700 266° West 261 300 8,900 -1,920 Descending Atlanta Center
02:29PM 33.5689 -86.4122 272° West 282 325 7,900 -2,100 Descending Atlanta Center
02:30PM 33.5661 -86.4572 266° West 257 296 6,800 -2,220 Descending Atlanta Center
02:30PM 33.5736 -86.4972 283° West 267 307 5,700 -1,920 Descending Atlanta Center
02:31PM 33.5875 -86.5350 294° West 258 297 4,900 -1,920 Descending Atlanta Center
02:31PM 33.6097 -86.5681 309° West 242 278 3,800 -1,980 Descending Atlanta Center
02:32PM 33.6256 -86.6058 297° West 249 287 2,900 -1,740 Descending Atlanta Center
02:32PM 33.6289 -86.6408 277° West 247 284 2,100 -840 Descending Atlanta Center
02:33PM 33.6139 -86.6703 239° Southwest 193 222 2,100 -480 Level Atlanta Center
02:34PM 33.5900 -86.7094 234° Southwest 127 146 1,400 -720 Descending Atlanta Center
02:36PM 33.5639 -86.7523 270° West  Level Estimated
02:43PM 33.5639 -86.7523 270° West  Level Estimated